sensor_id;sensor_type;location;lat;lon;timestamp;pressure;altitude;pressure_sealevel;temperature
68939;BMP180;59064;45.294;11.816;2022-09-29T00:01:58;99583.60;;;14.12
68939;BMP180;59064;45.294;11.816;2022-09-29T00:04:23;99580.20;;;14.10
68939;BMP180;59064;45.294;11.816;2022-09-29T00:06:49;99585.80;;;14.10
68939;BMP180;59064;45.294;11.816;2022-09-29T00:09:14;99590.00;;;14.20
68939;BMP180;59064;45.294;11.816;2022-09-29T00:11:40;99595.20;;;14.20
68939;BMP180;59064;45.294;11.816;2022-09-29T00:14:06;99585.40;;;14.16
68939;BMP180;59064;45.294;11.816;2022-09-29T00:16:31;99586.20;;;14.10
68939;BMP180;59064;45.294;11.816;2022-09-29T00:18:57;99580.40;;;14.08
68939;BMP180;59064;45.294;11.816;2022-09-29T00:21:23;99580.40;;;14.00
68939;BMP180;59064;45.294;11.816;2022-09-29T00:23:49;99584.20;;;14.00
68939;BMP180;59064;45.294;11.816;2022-09-29T00:26:19;99590.40;;;14.10
68939;BMP180;59064;45.294;11.816;2022-09-29T00:28:57;99589.00;;;14.10
68939;BMP180;59064;45.294;11.816;2022-09-29T00:31:26;99588.20;;;14.10
68939;BMP180;59064;45.294;11.816;2022-09-29T00:33:52;99588.00;;;14.10
68939;BMP180;59064;45.294;11.816;2022-09-29T00:36:20;99595.00;;;14.10
68939;BMP180;59064;45.294;11.816;2022-09-29T00:38:47;99591.00;;;14.10
68939;BMP180;59064;45.294;11.816;2022-09-29T00:41:27;99589.40;;;14.10
68939;BMP180;59064;45.294;11.816;2022-09-29T00:49:48;99587.60;;;14.02
68939;BMP180;59064;45.294;11.816;2022-09-29T00:52:34;99590.40;;;14.10
68939;BMP180;59064;45.294;11.816;2022-09-29T00:55:23;99591.00;;;14.10
68939;BMP180;59064;45.294;11.816;2022-09-29T01:00:22;99589.00;;;14.20
68939;BMP180;59064;45.294;11.816;2022-09-29T01:02:56;99589.20;;;14.20
68939;BMP180;59064;45.294;11.816;2022-09-29T01:05:31;99591.00;;;14.24
68939;BMP180;59064;45.294;11.816;2022-09-29T01:08:05;99585.80;;;14.30
68939;BMP180;59064;45.294;11.816;2022-09-29T01:10:34;99585.40;;;14.30
68939;BMP180;59064;45.294;11.816;2022-09-29T01:13:01;99588.40;;;14.30
68939;BMP180;59064;45.294;11.816;2022-09-29T01:15:26;99592.00;;;14.30
68939;BMP180;59064;45.294;11.816;2022-09-29T01:17:54;99594.00;;;14.30
68939;BMP180;59064;45.294;11.816;2022-09-29T01:20:21;99588.40;;;14.30
68939;BMP180;59064;45.294;11.816;2022-09-29T01:23:39;99587.00;;;14.32
68939;BMP180;59064;45.294;11.816;2022-09-29T01:35:19;99590.20;;;14.30
68939;BMP180;59064;45.294;11.816;2022-09-29T01:44:30;99599.40;;;14.30
68939;BMP180;59064;45.294;11.816;2022-09-29T01:47:00;99600.80;;;14.40
68939;BMP180;59064;45.294;11.816;2022-09-29T01:49:31;99598.40;;;14.40
68939;BMP180;59064;45.294;11.816;2022-09-29T01:52:21;99591.00;;;14.40
68939;BMP180;59064;45.294;11.816;2022-09-29T01:54:56;99583.80;;;14.40
68939;BMP180;59064;45.294;11.816;2022-09-29T01:58:06;99590.20;;;14.40
68939;BMP180;59064;45.294;11.816;2022-09-29T02:00:40;99590.80;;;14.40
68939;BMP180;59064;45.294;11.816;2022-09-29T02:03:34;99584.80;;;14.30
68939;BMP180;59064;45.294;11.816;2022-09-29T02:06:06;99583.80;;;14.20
68939;BMP180;59064;45.294;11.816;2022-09-29T02:08:57;99584.00;;;14.20
68939;BMP180;59064;45.294;11.816;2022-09-29T02:11:25;99589.80;;;14.10
68939;BMP180;59064;45.294;11.816;2022-09-29T02:14:22;99588.40;;;14.00
68939;BMP180;59064;45.294;11.816;2022-09-29T02:19:48;99596.00;;;14.00
68939;BMP180;59064;45.294;11.816;2022-09-29T02:22:15;99597.40;;;14.00
68939;BMP180;59064;45.294;11.816;2022-09-29T02:24:42;99597.40;;;14.00
68939;BMP180;59064;45.294;11.816;2022-09-29T02:27:10;99603.00;;;14.00
68939;BMP180;59064;45.294;11.816;2022-09-29T02:29:36;99606.20;;;13.92
68939;BMP180;59064;45.294;11.816;2022-09-29T02:32:05;99607.00;;;13.90
68939;BMP180;59064;45.294;11.816;2022-09-29T02:34:35;99604.80;;;13.90
68939;BMP180;59064;45.294;11.816;2022-09-29T02:51:40;99595.00;;;13.90
68939;BMP180;59064;45.294;11.816;2022-09-29T02:59:29;99591.80;;;13.90
68939;BMP180;59064;45.294;11.816;2022-09-29T03:01:56;99592.60;;;13.90
68939;BMP180;59064;45.294;11.816;2022-09-29T03:04:25;99594.80;;;13.90
68939;BMP180;59064;45.294;11.816;2022-09-29T03:06:51;99597.80;;;13.92
68939;BMP180;59064;45.294;11.816;2022-09-29T03:09:17;99592.20;;;14.00
68939;BMP180;59064;45.294;11.816;2022-09-29T03:11:43;99595.20;;;14.00
68939;BMP180;59064;45.294;11.816;2022-09-29T03:14:09;99594.20;;;14.00
68939;BMP180;59064;45.294;11.816;2022-09-29T03:16:35;99598.20;;;14.00
68939;BMP180;59064;45.294;11.816;2022-09-29T03:19:02;99594.80;;;14.00
68939;BMP180;59064;45.294;11.816;2022-09-29T03:21:31;99591.60;;;14.00
68939;BMP180;59064;45.294;11.816;2022-09-29T03:23:57;99589.20;;;14.00
68939;BMP180;59064;45.294;11.816;2022-09-29T03:26:23;99583.00;;;14.00
68939;BMP180;59064;45.294;11.816;2022-09-29T03:28:50;99583.60;;;14.00
68939;BMP180;59064;45.294;11.816;2022-09-29T03:31:16;99583.60;;;14.00
68939;BMP180;59064;45.294;11.816;2022-09-29T03:33:42;99582.60;;;14.00
68939;BMP180;59064;45.294;11.816;2022-09-29T03:36:08;99588.60;;;14.00
68939;BMP180;59064;45.294;11.816;2022-09-29T03:38:36;99587.40;;;14.00
68939;BMP180;59064;45.294;11.816;2022-09-29T03:41:03;99586.80;;;13.98
68939;BMP180;59064;45.294;11.816;2022-09-29T03:43:29;99583.40;;;13.90
68939;BMP180;59064;45.294;11.816;2022-09-29T03:45:55;99587.20;;;13.96
68939;BMP180;59064;45.294;11.816;2022-09-29T03:48:22;99584.20;;;13.90
68939;BMP180;59064;45.294;11.816;2022-09-29T03:50:50;99584.40;;;13.90
68939;BMP180;59064;45.294;11.816;2022-09-29T03:53:16;99575.40;;;13.92
68939;BMP180;59064;45.294;11.816;2022-09-29T03:55:47;99573.80;;;13.90
68939;BMP180;59064;45.294;11.816;2022-09-29T03:58:13;99578.80;;;13.90
68939;BMP180;59064;45.294;11.816;2022-09-29T04:00:39;99572.00;;;13.90
68939;BMP180;59064;45.294;11.816;2022-09-29T04:03:05;99574.80;;;13.90
68939;BMP180;59064;45.294;11.816;2022-09-29T04:05:31;99579.20;;;13.90
68939;BMP180;59064;45.294;11.816;2022-09-29T04:07:59;99581.00;;;13.90
68939;BMP180;59064;45.294;11.816;2022-09-29T04:10:24;99583.00;;;13.90
68939;BMP180;59064;45.294;11.816;2022-09-29T04:12:50;99577.80;;;13.90
68939;BMP180;59064;45.294;11.816;2022-09-29T04:15:16;99577.20;;;13.80
68939;BMP180;59064;45.294;11.816;2022-09-29T04:17:41;99580.60;;;13.80
68939;BMP180;59064;45.294;11.816;2022-09-29T04:20:07;99593.80;;;13.80
68939;BMP180;59064;45.294;11.816;2022-09-29T04:22:33;99589.40;;;13.80
68939;BMP180;59064;45.294;11.816;2022-09-29T04:24:59;99580.20;;;13.80
68939;BMP180;59064;45.294;11.816;2022-09-29T04:27:24;99577.20;;;13.80
68939;BMP180;59064;45.294;11.816;2022-09-29T04:29:50;99587.20;;;13.70
68939;BMP180;59064;45.294;11.816;2022-09-29T04:32:15;99591.20;;;13.70
68939;BMP180;59064;45.294;11.816;2022-09-29T04:34:41;99594.00;;;13.60
68939;BMP180;59064;45.294;11.816;2022-09-29T04:37:08;99600.80;;;13.60
68939;BMP180;59064;45.294;11.816;2022-09-29T04:39:36;99602.40;;;13.60
68939;BMP180;59064;45.294;11.816;2022-09-29T04:42:02;99606.80;;;13.60
68939;BMP180;59064;45.294;11.816;2022-09-29T04:44:28;99607.00;;;13.56
68939;BMP180;59064;45.294;11.816;2022-09-29T04:46:54;99609.00;;;13.50
68939;BMP180;59064;45.294;11.816;2022-09-29T04:49:19;99613.80;;;13.50
68939;BMP180;59064;45.294;11.816;2022-09-29T04:51:46;99616.20;;;13.48
68939;BMP180;59064;45.294;11.816;2022-09-29T04:54:12;99614.00;;;13.46
68939;BMP180;59064;45.294;11.816;2022-09-29T04:56:37;99614.00;;;13.46
68939;BMP180;59064;45.294;11.816;2022-09-29T04:59:03;99619.00;;;13.46
68939;BMP180;59064;45.294;11.816;2022-09-29T05:01:29;99618.20;;;13.40
68939;BMP180;59064;45.294;11.816;2022-09-29T05:03:55;99617.20;;;13.46
68939;BMP180;59064;45.294;11.816;2022-09-29T05:06:20;99618.80;;;13.40
68939;BMP180;59064;45.294;11.816;2022-09-29T05:08:46;99618.00;;;13.40
68939;BMP180;59064;45.294;11.816;2022-09-29T05:11:13;99619.00;;;13.40
68939;BMP180;59064;45.294;11.816;2022-09-29T05:13:39;99620.20;;;13.50
68939;BMP180;59064;45.294;11.816;2022-09-29T05:16:05;99619.00;;;13.50
68939;BMP180;59064;45.294;11.816;2022-09-29T05:18:31;99619.80;;;13.60
68939;BMP180;59064;45.294;11.816;2022-09-29T05:21:05;99622.20;;;13.70
68939;BMP180;59064;45.294;11.816;2022-09-29T05:23:32;99631.20;;;13.80
68939;BMP180;59064;45.294;11.816;2022-09-29T05:26:06;99639.40;;;13.90
68939;BMP180;59064;45.294;11.816;2022-09-29T05:28:33;99639.20;;;13.94
68939;BMP180;59064;45.294;11.816;2022-09-29T05:31:05;99628.20;;;14.00
68939;BMP180;59064;45.294;11.816;2022-09-29T05:33:31;99633.80;;;14.10
68939;BMP180;59064;45.294;11.816;2022-09-29T05:35:57;99634.00;;;14.20
68939;BMP180;59064;45.294;11.816;2022-09-29T05:38:24;99640.80;;;14.30
68939;BMP180;59064;45.294;11.816;2022-09-29T05:40:51;99637.60;;;14.40
68939;BMP180;59064;45.294;11.816;2022-09-29T05:43:18;99627.00;;;14.50
68939;BMP180;59064;45.294;11.816;2022-09-29T05:45:44;99629.00;;;14.60
68939;BMP180;59064;45.294;11.816;2022-09-29T05:48:09;99633.00;;;14.70
68939;BMP180;59064;45.294;11.816;2022-09-29T05:50:35;99641.80;;;14.80
68939;BMP180;59064;45.294;11.816;2022-09-29T05:53:08;99640.20;;;14.90
68939;BMP180;59064;45.294;11.816;2022-09-29T05:55:36;99638.00;;;15.00
68939;BMP180;59064;45.294;11.816;2022-09-29T05:58:03;99632.20;;;15.10
68939;BMP180;59064;45.294;11.816;2022-09-29T06:00:29;99633.60;;;15.10
68939;BMP180;59064;45.294;11.816;2022-09-29T06:02:59;99638.40;;;15.20
68939;BMP180;59064;45.294;11.816;2022-09-29T06:05:26;99646.40;;;15.30
68939;BMP180;59064;45.294;11.816;2022-09-29T06:07:52;99645.00;;;15.40
68939;BMP180;59064;45.294;11.816;2022-09-29T06:10:19;99641.80;;;15.50
68939;BMP180;59064;45.294;11.816;2022-09-29T06:12:44;99644.80;;;15.60
68939;BMP180;59064;45.294;11.816;2022-09-29T06:15:11;99642.40;;;15.70
68939;BMP180;59064;45.294;11.816;2022-09-29T06:17:37;99647.60;;;15.80
68939;BMP180;59064;45.294;11.816;2022-09-29T06:20:04;99647.80;;;15.90
68939;BMP180;59064;45.294;11.816;2022-09-29T06:22:32;99642.00;;;16.00
68939;BMP180;59064;45.294;11.816;2022-09-29T06:24:58;99639.20;;;16.04
68939;BMP180;59064;45.294;11.816;2022-09-29T06:27:23;99643.40;;;16.10
68939;BMP180;59064;45.294;11.816;2022-09-29T06:29:49;99636.00;;;16.10
68939;BMP180;59064;45.294;11.816;2022-09-29T06:32:15;99639.80;;;16.10
68939;BMP180;59064;45.294;11.816;2022-09-29T06:34:40;99643.20;;;16.10
68939;BMP180;59064;45.294;11.816;2022-09-29T06:37:25;99644.40;;;16.06
68939;BMP180;59064;45.294;11.816;2022-09-29T06:40:06;99634.40;;;16.00
68939;BMP180;59064;45.294;11.816;2022-09-29T06:42:34;99642.00;;;16.10
68939;BMP180;59064;45.294;11.816;2022-09-29T06:44:59;99639.60;;;16.10
68939;BMP180;59064;45.294;11.816;2022-09-29T06:47:25;99633.00;;;16.10
68939;BMP180;59064;45.294;11.816;2022-09-29T06:49:50;99633.20;;;16.28
68939;BMP180;59064;45.294;11.816;2022-09-29T06:52:16;99625.60;;;16.40
68939;BMP180;59064;45.294;11.816;2022-09-29T06:54:42;99622.00;;;16.60
68939;BMP180;59064;45.294;11.816;2022-09-29T06:57:08;99624.20;;;16.70
68939;BMP180;59064;45.294;11.816;2022-09-29T06:59:34;99625.00;;;16.80
68939;BMP180;59064;45.294;11.816;2022-09-29T07:02:00;99629.40;;;17.00
68939;BMP180;59064;45.294;11.816;2022-09-29T07:04:26;99630.00;;;17.10
68939;BMP180;59064;45.294;11.816;2022-09-29T07:06:52;99635.40;;;17.16
68939;BMP180;59064;45.294;11.816;2022-09-29T07:09:19;99634.40;;;17.30
68939;BMP180;59064;45.294;11.816;2022-09-29T07:11:48;99633.40;;;17.40
68939;BMP180;59064;45.294;11.816;2022-09-29T07:14:17;99645.00;;;17.50
68939;BMP180;59064;45.294;11.816;2022-09-29T07:16:43;99646.20;;;17.46
68939;BMP180;59064;45.294;11.816;2022-09-29T07:19:09;99659.20;;;17.50
68939;BMP180;59064;45.294;11.816;2022-09-29T07:21:36;99663.80;;;17.50
68939;BMP180;59064;45.294;11.816;2022-09-29T07:24:02;99663.00;;;17.56
68939;BMP180;59064;45.294;11.816;2022-09-29T07:26:27;99660.00;;;17.66
68939;BMP180;59064;45.294;11.816;2022-09-29T07:28:53;99659.80;;;17.74
68939;BMP180;59064;45.294;11.816;2022-09-29T07:31:20;99661.20;;;17.98
68939;BMP180;59064;45.294;11.816;2022-09-29T07:33:48;99662.00;;;18.12
68939;BMP180;59064;45.294;11.816;2022-09-29T07:36:17;99663.20;;;18.30
68939;BMP180;59064;45.294;11.816;2022-09-29T07:38:50;99662.60;;;18.40
68939;BMP180;59064;45.294;11.816;2022-09-29T07:41:19;99671.40;;;18.50
68939;BMP180;59064;45.294;11.816;2022-09-29T07:43:45;99678.00;;;18.50
68939;BMP180;59064;45.294;11.816;2022-09-29T07:46:11;99681.60;;;18.60
68939;BMP180;59064;45.294;11.816;2022-09-29T07:48:38;99687.60;;;18.60
68939;BMP180;59064;45.294;11.816;2022-09-29T07:51:09;99687.80;;;18.70
68939;BMP180;59064;45.294;11.816;2022-09-29T07:53:36;99683.20;;;18.70
68939;BMP180;59064;45.294;11.816;2022-09-29T07:56:36;99673.00;;;18.90
68939;BMP180;59064;45.294;11.816;2022-09-29T07:59:03;99670.20;;;19.14
68939;BMP180;59064;45.294;11.816;2022-09-29T08:01:29;99669.60;;;19.38
68939;BMP180;59064;45.294;11.816;2022-09-29T08:03:56;99670.40;;;19.50
68939;BMP180;59064;45.294;11.816;2022-09-29T08:06:24;99674.60;;;19.60
68939;BMP180;59064;45.294;11.816;2022-09-29T08:08:50;99684.60;;;19.70
68939;BMP180;59064;45.294;11.816;2022-09-29T08:11:19;99687.60;;;19.80
68939;BMP180;59064;45.294;11.816;2022-09-29T08:13:47;99691.00;;;19.60
68939;BMP180;59064;45.294;11.816;2022-09-29T08:16:15;99700.20;;;19.50
68939;BMP180;59064;45.294;11.816;2022-09-29T08:18:41;99701.60;;;19.50
68939;BMP180;59064;45.294;11.816;2022-09-29T08:21:07;99699.20;;;19.60
68939;BMP180;59064;45.294;11.816;2022-09-29T08:23:40;99699.20;;;19.76
68939;BMP180;59064;45.294;11.816;2022-09-29T08:26:10;99701.60;;;19.80
68939;BMP180;59064;45.294;11.816;2022-09-29T08:28:37;99700.40;;;19.90
68939;BMP180;59064;45.294;11.816;2022-09-29T08:31:12;99699.40;;;20.00
68939;BMP180;59064;45.294;11.816;2022-09-29T08:33:38;99703.20;;;20.08
68939;BMP180;59064;45.294;11.816;2022-09-29T08:36:06;99710.60;;;20.10
68939;BMP180;59064;45.294;11.816;2022-09-29T08:38:40;99711.40;;;20.10
68939;BMP180;59064;45.294;11.816;2022-09-29T08:47:04;99716.20;;;20.30
68939;BMP180;59064;45.294;11.816;2022-09-29T08:49:41;99720.20;;;20.50
68939;BMP180;59064;45.294;11.816;2022-09-29T08:52:15;99713.60;;;20.60
68939;BMP180;59064;45.294;11.816;2022-09-29T08:54:45;99715.00;;;20.90
68939;BMP180;59064;45.294;11.816;2022-09-29T08:57:14;99721.20;;;21.00
68939;BMP180;59064;45.294;11.816;2022-09-29T08:59:53;99717.60;;;21.30
68939;BMP180;59064;45.294;11.816;2022-09-29T09:10:58;99729.00;;;21.90
68939;BMP180;59064;45.294;11.816;2022-09-29T09:24:58;99733.20;;;22.72
68939;BMP180;59064;45.294;11.816;2022-09-29T09:27:39;99739.80;;;22.82
68939;BMP180;59064;45.294;11.816;2022-09-29T09:30:12;99744.60;;;23.02
68939;BMP180;59064;45.294;11.816;2022-09-29T09:32:48;99739.60;;;23.14
68939;BMP180;59064;45.294;11.816;2022-09-29T09:38:17;99746.40;;;23.60
68939;BMP180;59064;45.294;11.816;2022-09-29T09:40:48;99750.60;;;23.36
68939;BMP180;59064;45.294;11.816;2022-09-29T09:43:23;99748.40;;;22.92
68939;BMP180;59064;45.294;11.816;2022-09-29T09:46:42;99749.40;;;22.70
68939;BMP180;59064;45.294;11.816;2022-09-29T09:49:35;99747.00;;;22.68
68939;BMP180;59064;45.294;11.816;2022-09-29T09:55:18;99740.80;;;22.50
68939;BMP180;59064;45.294;11.816;2022-09-29T10:00:34;99740.60;;;22.60
68939;BMP180;59064;45.294;11.816;2022-09-29T10:03:04;99737.00;;;22.84
68939;BMP180;59064;45.294;11.816;2022-09-29T10:05:40;99733.20;;;22.90
68939;BMP180;59064;45.294;11.816;2022-09-29T10:10:48;99734.40;;;22.90
68939;BMP180;59064;45.294;11.816;2022-09-29T10:13:14;99735.20;;;22.98
68939;BMP180;59064;45.294;11.816;2022-09-29T10:18:28;99740.60;;;22.74
68939;BMP180;59064;45.294;11.816;2022-09-29T10:20:54;99738.80;;;22.50
68939;BMP180;59064;45.294;11.816;2022-09-29T10:26:16;99727.40;;;22.34
68939;BMP180;59064;45.294;11.816;2022-09-29T10:29:41;99727.20;;;22.68
68939;BMP180;59064;45.294;11.816;2022-09-29T10:32:13;99727.00;;;23.00
68939;BMP180;59064;45.294;11.816;2022-09-29T10:34:43;99725.40;;;23.36
68939;BMP180;59064;45.294;11.816;2022-09-29T10:37:22;99722.00;;;23.50
68939;BMP180;59064;45.294;11.816;2022-09-29T10:39:49;99722.00;;;23.50
68939;BMP180;59064;45.294;11.816;2022-09-29T10:42:22;99727.00;;;23.86
68939;BMP180;59064;45.294;11.816;2022-09-29T10:45:00;99732.20;;;24.10
68939;BMP180;59064;45.294;11.816;2022-09-29T10:47:27;99725.40;;;24.20
68939;BMP180;59064;45.294;11.816;2022-09-29T10:50:14;99723.80;;;24.50
68939;BMP180;59064;45.294;11.816;2022-09-29T10:55:21;99720.00;;;24.80
68939;BMP180;59064;45.294;11.816;2022-09-29T10:57:49;99720.80;;;24.80
68939;BMP180;59064;45.294;11.816;2022-09-29T11:06:11;99719.20;;;25.58
68939;BMP180;59064;45.294;11.816;2022-09-29T11:14:38;99709.00;;;25.98
68939;BMP180;59064;45.294;11.816;2022-09-29T11:17:29;99698.40;;;25.90
68939;BMP180;59064;45.294;11.816;2022-09-29T11:20:02;99699.40;;;25.70
68939;BMP180;59064;45.294;11.816;2022-09-29T11:28:33;99701.00;;;26.06
68939;BMP180;59064;45.294;11.816;2022-09-29T11:51:23;99696.80;;;27.50
68939;BMP180;59064;45.294;11.816;2022-09-29T12:14:24;99671.40;;;29.18
68939;BMP180;59064;45.294;11.816;2022-09-29T12:17:01;99675.20;;;28.72
68939;BMP180;59064;45.294;11.816;2022-09-29T12:19:35;99660.60;;;28.30
68939;BMP180;59064;45.294;11.816;2022-09-29T12:22:02;99667.20;;;28.32
68939;BMP180;59064;45.294;11.816;2022-09-29T12:24:55;99665.00;;;28.36
68939;BMP180;59064;45.294;11.816;2022-09-29T12:27:39;99677.80;;;28.62
68939;BMP180;59064;45.294;11.816;2022-09-29T12:30:28;99680.60;;;28.48
68939;BMP180;59064;45.294;11.816;2022-09-29T12:36:18;99687.80;;;28.80
68939;BMP180;59064;45.294;11.816;2022-09-29T12:45:30;99674.40;;;29.76
68939;BMP180;59064;45.294;11.816;2022-09-29T12:48:48;99671.60;;;29.80
68939;BMP180;59064;45.294;11.816;2022-09-29T12:56:38;99679.00;;;30.28
68939;BMP180;59064;45.294;11.816;2022-09-29T12:59:38;99683.80;;;29.54
68939;BMP180;59064;45.294;11.816;2022-09-29T13:26:24;99651.20;;;26.22
68939;BMP180;59064;45.294;11.816;2022-09-29T13:28:55;99656.00;;;26.30
68939;BMP180;59064;45.294;11.816;2022-09-29T13:31:26;99648.60;;;26.40
68939;BMP180;59064;45.294;11.816;2022-09-29T13:33:57;99653.80;;;26.30
68939;BMP180;59064;45.294;11.816;2022-09-29T13:36:33;99650.20;;;26.10
68939;BMP180;59064;45.294;11.816;2022-09-29T13:39:04;99648.20;;;26.44
68939;BMP180;59064;45.294;11.816;2022-09-29T13:41:36;99643.80;;;26.50
68939;BMP180;59064;45.294;11.816;2022-09-29T13:44:19;99648.00;;;26.40
68939;BMP180;59064;45.294;11.816;2022-09-29T13:46:46;99640.00;;;26.12
68939;BMP180;59064;45.294;11.816;2022-09-29T13:49:25;99638.60;;;25.90
68939;BMP180;59064;45.294;11.816;2022-09-29T13:51:55;99631.20;;;25.70
68939;BMP180;59064;45.294;11.816;2022-09-29T13:54:40;99632.00;;;25.64
68939;BMP180;59064;45.294;11.816;2022-09-29T14:00:15;99626.20;;;25.60
68939;BMP180;59064;45.294;11.816;2022-09-29T14:06:15;99627.20;;;25.60
68939;BMP180;59064;45.294;11.816;2022-09-29T14:09:19;99617.40;;;25.62
68939;BMP180;59064;45.294;11.816;2022-09-29T14:11:51;99615.80;;;25.26
68939;BMP180;59064;45.294;11.816;2022-09-29T14:14:33;99624.00;;;24.90
68939;BMP180;59064;45.294;11.816;2022-09-29T14:27:39;99635.60;;;25.28
68939;BMP180;59064;45.294;11.816;2022-09-29T14:38:35;99635.60;;;24.00
68939;BMP180;59064;45.294;11.816;2022-09-29T14:52:48;99625.00;;;22.30
68939;BMP180;59064;45.294;11.816;2022-09-29T15:02:18;99602.60;;;21.90
68939;BMP180;59064;45.294;11.816;2022-09-29T15:04:47;99611.40;;;21.80
68939;BMP180;59064;45.294;11.816;2022-09-29T15:07:17;99616.80;;;21.70
68939;BMP180;59064;45.294;11.816;2022-09-29T15:09:57;99609.20;;;21.64
68939;BMP180;59064;45.294;11.816;2022-09-29T15:12:31;99613.80;;;21.60
68939;BMP180;59064;45.294;11.816;2022-09-29T15:14:58;99619.40;;;22.16
68939;BMP180;59064;45.294;11.816;2022-09-29T15:25:29;99617.40;;;22.24
68939;BMP180;59064;45.294;11.816;2022-09-29T15:28:13;99615.80;;;21.96
68939;BMP180;59064;45.294;11.816;2022-09-29T15:30:40;99617.80;;;21.80
68939;BMP180;59064;45.294;11.816;2022-09-29T15:33:21;99611.60;;;21.70
68939;BMP180;59064;45.294;11.816;2022-09-29T15:36:23;99610.40;;;21.60
68939;BMP180;59064;45.294;11.816;2022-09-29T15:38:53;99607.40;;;21.70
68939;BMP180;59064;45.294;11.816;2022-09-29T15:41:21;99608.80;;;21.80
68939;BMP180;59064;45.294;11.816;2022-09-29T15:44:16;99609.80;;;22.00
68939;BMP180;59064;45.294;11.816;2022-09-29T15:46:55;99607.60;;;22.30
68939;BMP180;59064;45.294;11.816;2022-09-29T15:49:23;99609.20;;;22.30
68939;BMP180;59064;45.294;11.816;2022-09-29T15:52:06;99607.60;;;22.20
68939;BMP180;59064;45.294;11.816;2022-09-29T15:54:41;99609.40;;;22.20
68939;BMP180;59064;45.294;11.816;2022-09-29T16:05:42;99613.80;;;23.00
68939;BMP180;59064;45.294;11.816;2022-09-29T16:08:24;99610.20;;;23.10
68939;BMP180;59064;45.294;11.816;2022-09-29T16:10:54;99616.60;;;23.10
68939;BMP180;59064;45.294;11.816;2022-09-29T16:13:27;99622.20;;;23.00
68939;BMP180;59064;45.294;11.816;2022-09-29T16:16:03;99617.20;;;22.80
68939;BMP180;59064;45.294;11.816;2022-09-29T16:18:48;99621.20;;;22.54
68939;BMP180;59064;45.294;11.816;2022-09-29T16:21:21;99619.20;;;22.28
68939;BMP180;59064;45.294;11.816;2022-09-29T16:24:12;99619.40;;;21.98
68939;BMP180;59064;45.294;11.816;2022-09-29T16:26:58;99623.20;;;21.66
68939;BMP180;59064;45.294;11.816;2022-09-29T16:29:35;99621.60;;;21.40
68939;BMP180;59064;45.294;11.816;2022-09-29T16:40:51;99630.40;;;20.60
68939;BMP180;59064;45.294;11.816;2022-09-29T16:45:53;99645.40;;;20.10
68939;BMP180;59064;45.294;11.816;2022-09-29T16:48:21;99652.20;;;19.76
68939;BMP180;59064;45.294;11.816;2022-09-29T16:50:48;99657.00;;;19.48
68939;BMP180;59064;45.294;11.816;2022-09-29T16:53:31;99655.60;;;19.20
68939;BMP180;59064;45.294;11.816;2022-09-29T16:58:44;99661.40;;;18.72
68939;BMP180;59064;45.294;11.816;2022-09-29T17:01:11;99667.00;;;18.50
68939;BMP180;59064;45.294;11.816;2022-09-29T17:03:40;99664.00;;;18.40
68939;BMP180;59064;45.294;11.816;2022-09-29T17:06:08;99661.40;;;18.20
68939;BMP180;59064;45.294;11.816;2022-09-29T17:08:33;99668.60;;;18.00
68939;BMP180;59064;45.294;11.816;2022-09-29T17:11:00;99677.80;;;17.90
68939;BMP180;59064;45.294;11.816;2022-09-29T17:13:33;99681.60;;;17.78
68939;BMP180;59064;45.294;11.816;2022-09-29T17:16:00;99694.60;;;17.60
68939;BMP180;59064;45.294;11.816;2022-09-29T17:18:26;99699.40;;;17.50
68939;BMP180;59064;45.294;11.816;2022-09-29T17:20:53;99704.60;;;17.40
68939;BMP180;59064;45.294;11.816;2022-09-29T17:23:19;99714.80;;;17.30
68939;BMP180;59064;45.294;11.816;2022-09-29T17:25:45;99719.20;;;17.26
68939;BMP180;59064;45.294;11.816;2022-09-29T17:28:21;99720.20;;;17.20
68939;BMP180;59064;45.294;11.816;2022-09-29T17:30:49;99724.00;;;17.14
68939;BMP180;59064;45.294;11.816;2022-09-29T17:33:18;99728.00;;;17.10
68939;BMP180;59064;45.294;11.816;2022-09-29T17:35:49;99729.80;;;17.10
68939;BMP180;59064;45.294;11.816;2022-09-29T17:38:17;99741.40;;;17.10
68939;BMP180;59064;45.294;11.816;2022-09-29T17:43:18;99748.80;;;17.10
68939;BMP180;59064;45.294;11.816;2022-09-29T17:45:45;99751.00;;;17.10
68939;BMP180;59064;45.294;11.816;2022-09-29T17:48:11;99758.40;;;17.10
68939;BMP180;59064;45.294;11.816;2022-09-29T17:50:49;99759.60;;;17.10
68939;BMP180;59064;45.294;11.816;2022-09-29T17:53:16;99766.20;;;17.02
68939;BMP180;59064;45.294;11.816;2022-09-29T17:55:47;99768.00;;;17.00
68939;BMP180;59064;45.294;11.816;2022-09-29T17:58:18;99770.60;;;17.00
68939;BMP180;59064;45.294;11.816;2022-09-29T18:00:47;99766.40;;;17.00
68939;BMP180;59064;45.294;11.816;2022-09-29T18:03:16;99770.80;;;16.96
68939;BMP180;59064;45.294;11.816;2022-09-29T18:05:46;99772.20;;;16.90
68939;BMP180;59064;45.294;11.816;2022-09-29T18:08:17;99778.20;;;16.90
68939;BMP180;59064;45.294;11.816;2022-09-29T18:10:58;99776.20;;;16.90
68939;BMP180;59064;45.294;11.816;2022-09-29T18:13:26;99777.80;;;16.80
68939;BMP180;59064;45.294;11.816;2022-09-29T18:15:53;99792.00;;;16.80
68939;BMP180;59064;45.294;11.816;2022-09-29T18:18:22;99786.40;;;16.70
68939;BMP180;59064;45.294;11.816;2022-09-29T18:20:48;99798.20;;;16.66
68939;BMP180;59064;45.294;11.816;2022-09-29T18:23:16;99805.40;;;16.60
68939;BMP180;59064;45.294;11.816;2022-09-29T18:25:45;99801.20;;;16.58
68939;BMP180;59064;45.294;11.816;2022-09-29T18:28:15;99801.00;;;16.50
68939;BMP180;59064;45.294;11.816;2022-09-29T18:30:42;99801.40;;;16.40
68939;BMP180;59064;45.294;11.816;2022-09-29T18:33:14;99798.80;;;16.40
68939;BMP180;59064;45.294;11.816;2022-09-29T18:35:44;99796.60;;;16.30
68939;BMP180;59064;45.294;11.816;2022-09-29T18:38:38;99801.40;;;16.30
68939;BMP180;59064;45.294;11.816;2022-09-29T18:41:16;99797.60;;;16.30
68939;BMP180;59064;45.294;11.816;2022-09-29T18:43:45;99804.60;;;16.24
68939;BMP180;59064;45.294;11.816;2022-09-29T18:46:11;99809.00;;;16.20
68939;BMP180;59064;45.294;11.816;2022-09-29T18:48:39;99811.60;;;16.20